createdAt,value
2022-12-01T03:45:46.268Z,92.52
2022-12-01T03:46:46.245Z,92.25
2022-12-01T03:51:30.860Z,93.04
2022-12-01T03:52:30.949Z,92.93
2022-12-01T03:53:30.819Z,93.24
2022-12-01T03:54:30.883Z,93.45
2022-12-01T03:55:30.735Z,93.41
2022-12-01T03:59:47.396Z,92.11
2022-12-01T04:00:54.702Z,92.11
2022-12-01T04:01:47.079Z,91.86
2022-12-01T04:02:47.058Z,91.96
2022-12-01T04:03:47.014Z,92.07
2022-12-01T04:04:48.265Z,91.65
2022-12-01T04:08:32.442Z,91.90
2022-12-01T04:09:32.490Z,91.59
2022-12-01T04:12:23.565Z,92.11
2022-12-01T04:13:23.655Z,91.90
2022-12-01T04:14:23.622Z,91.69
2022-12-01T04:15:23.735Z,91.90
2022-12-01T04:16:31.294Z,91.59
2022-12-01T04:17:58.436Z,92.11
2022-12-01T04:18:24.863Z,91.80
2022-12-01T04:19:24.860Z,91.63
2022-12-01T04:20:24.689Z,92.00
2022-12-01T04:21:24.672Z,92.05
2022-12-01T04:22:24.663Z,91.32
2022-12-01T04:23:24.709Z,91.38
2022-12-01T04:24:24.628Z,91.28
2022-12-01T04:25:24.590Z,91.42
2022-12-01T04:26:24.619Z,91.63
2022-12-01T04:27:24.603Z,91.69
2022-12-01T04:28:24.584Z,91.53
2022-12-01T04:29:24.540Z,91.17
2022-12-01T04:30:24.558Z,90.56
2022-12-01T04:31:24.587Z,90.35
2022-12-01T04:32:24.531Z,90.25
2022-12-01T04:33:24.582Z,90.70
2022-12-01T04:34:24.506Z,90.14
2022-12-01T04:35:24.528Z,90.29
2022-12-01T04:36:24.531Z,90.29
2022-12-01T04:37:24.500Z,90.39
2022-12-01T04:38:30.055Z,90.91
2022-12-01T04:39:26.512Z,91.01
2022-12-01T04:40:24.485Z,90.39
2022-12-01T04:41:24.442Z,90.91
2022-12-01T04:42:24.439Z,90.70
2022-12-01T04:43:24.477Z,91.32
2022-12-01T04:44:24.458Z,91.53
2022-12-01T04:45:25.459Z,90.91
2022-12-01T04:46:24.444Z,90.77
2022-12-01T04:47:24.402Z,90.97
2022-12-01T04:48:24.425Z,90.25
2022-12-01T04:49:24.374Z,90.35
2022-12-01T04:50:24.380Z,90.45
2022-12-01T04:51:24.342Z,90.66
2022-12-01T04:52:24.371Z,90.25
2022-12-01T04:53:24.337Z,90.45
2022-12-01T04:54:24.303Z,90.45
2022-12-01T04:55:24.315Z,90.45
2022-12-01T04:56:24.295Z,90.25
2022-12-01T04:57:24.308Z,89.94
2022-12-01T04:58:24.321Z,89.62
2022-12-01T04:59:24.297Z,89.52
2022-12-01T05:00:24.292Z,89.87
2022-12-01T05:01:24.388Z,90.04
2022-12-01T05:02:24.343Z,90.45
2022-12-01T05:03:24.229Z,90.04
2022-12-01T05:04:24.273Z,90.04
2022-12-01T05:05:24.210Z,90.14
2022-12-01T05:06:24.187Z,90.25
2022-12-01T05:07:24.243Z,90.66
2022-12-01T05:08:24.173Z,90.14
2022-12-01T05:09:24.161Z,90.35
2022-12-01T05:10:24.156Z,90.25
2022-12-01T05:11:24.147Z,89.94
2022-12-01T05:12:24.183Z,90.08
2022-12-01T05:13:24.122Z,89.98
2022-12-01T05:14:24.119Z,90.50
2022-12-01T05:15:24.110Z,90.39
2022-12-01T05:16:24.124Z,90.45
2022-12-01T05:17:24.086Z,90.53
2022-12-01T05:18:24.099Z,90.08
2022-12-01T05:19:24.104Z,90.50
2022-12-01T05:20:24.078Z,91.01
2022-12-01T05:21:24.097Z,91.42
2022-12-01T05:22:49.428Z,90.97
2022-12-01T05:23:26.028Z,90.91
2022-12-01T05:24:24.015Z,90.56
2022-12-01T05:25:24.011Z,90.91
2022-12-01T05:26:24.016Z,90.97
2022-12-01T05:27:24.034Z,90.25
2022-12-01T05:28:23.961Z,90.56
2022-12-01T05:29:24.007Z,90.39
2022-12-01T05:30:28.357Z,89.94
2022-12-01T05:31:25.000Z,89.94
2022-12-01T05:32:23.995Z,89.98
2022-12-01T05:33:23.968Z,90.29
2022-12-01T05:34:23.940Z,90.50
2022-12-01T05:35:23.922Z,90.39
2022-12-01T05:36:23.907Z,90.25
2022-12-01T05:37:23.883Z,90.35
2022-12-01T05:38:23.880Z,90.35
2022-12-01T05:39:23.947Z,90.77
2022-12-01T05:40:23.871Z,91.07
2022-12-01T05:41:23.877Z,90.35
2022-12-01T05:42:23.880Z,90.04
2022-12-01T05:43:28.589Z,89.98
2022-12-01T05:44:25.825Z,89.87
2022-12-01T05:45:23.814Z,90.39
2022-12-01T05:46:23.861Z,90.50
2022-12-01T05:47:23.784Z,90.50
2022-12-01T05:48:23.761Z,91.16
2022-12-01T05:49:23.841Z,91.11
2022-12-01T05:50:23.743Z,91.01
2022-12-01T05:51:23.765Z,90.66
2022-12-01T05:52:23.726Z,91.32
2022-12-01T05:53:23.707Z,91.32
2022-12-01T05:54:23.753Z,91.32
2022-12-01T05:55:23.741Z,90.29
2022-12-01T05:56:23.704Z,90.33
2022-12-01T05:57:23.683Z,90.12
2022-12-01T05:58:23.716Z,89.98
2022-12-01T05:59:23.683Z,90.53
2022-12-01T06:00:23.665Z,90.44
2022-12-01T06:01:23.639Z,90.74
2022-12-01T06:02:23.769Z,90.80
2022-12-01T06:03:23.685Z,90.44
2022-12-01T06:04:23.702Z,90.39
2022-12-01T06:05:23.629Z,90.39
2022-12-01T06:06:23.588Z,90.35
2022-12-01T06:07:23.625Z,89.98
2022-12-01T06:08:23.589Z,89.36
2022-12-01T06:09:23.660Z,89.25
2022-12-01T06:10:23.570Z,89.61
2022-12-01T06:11:23.553Z,89.92
2022-12-01T06:12:23.533Z,89.98
2022-12-01T06:13:23.562Z,90.02
2022-12-01T06:14:23.540Z,89.87
2022-12-01T06:15:23.547Z,89.77
2022-12-01T06:16:23.569Z,89.98
2022-12-01T06:17:23.525Z,89.56
2022-12-01T06:18:23.501Z,89.25
2022-12-01T06:19:23.454Z,89.04
2022-12-01T06:20:23.503Z,88.67
2022-12-01T06:21:23.447Z,88.98
2022-12-01T06:22:23.440Z,88.84
2022-12-01T06:23:27.582Z,88.53
2022-12-01T06:24:25.458Z,88.43
2022-12-01T06:25:23.438Z,88.12
2022-12-01T06:26:23.430Z,88.46
2022-12-01T06:27:23.428Z,87.33
2022-12-01T06:28:23.370Z,87.12
2022-12-01T06:29:23.399Z,88.06
2022-12-01T06:30:23.377Z,87.74
2022-12-01T06:31:23.376Z,87.54
2022-12-01T06:32:23.399Z,87.85
2022-12-01T06:33:23.366Z,88.26
2022-12-01T06:34:23.324Z,87.54
2022-12-01T06:35:23.314Z,87.12
2022-12-01T06:36:23.315Z,86.65
2022-12-01T06:37:23.307Z,86.65
2022-12-01T06:38:23.308Z,87.27
2022-12-01T06:39:23.357Z,86.75
2022-12-01T06:40:23.350Z,87.37
2022-12-01T06:41:23.260Z,87.06
2022-12-01T06:42:23.413Z,87.37
2022-12-01T06:43:23.267Z,87.37
2022-12-01T06:44:23.273Z,87.16
2022-12-01T06:45:23.256Z,87.02
2022-12-01T06:46:23.414Z,86.85
2022-12-01T06:47:23.213Z,86.75
2022-12-01T06:48:23.238Z,86.13
2022-12-01T07:13:48.158Z,87.30
2022-12-01T07:19:54.830Z,85.61
2022-12-01T07:20:56.323Z,85.61
2022-12-01T07:21:56.048Z,85.50
2022-12-01T07:22:55.987Z,85.71
2022-12-01T07:23:55.974Z,85.92
2022-12-01T07:24:56.004Z,85.09
2022-12-01T07:25:55.931Z,84.95
2022-12-01T07:26:55.893Z,84.68
2022-12-01T07:27:55.943Z,84.16
2022-12-01T07:28:55.898Z,84.16
2022-12-01T07:29:55.910Z,84.51
2022-12-01T07:30:55.935Z,85.40
2022-12-01T07:31:55.931Z,86.02
2022-12-01T07:32:55.894Z,86.27
2022-12-01T07:33:55.891Z,84.51
2022-12-01T07:34:55.879Z,84.82
2022-12-01T07:35:55.836Z,86.17
2022-12-01T07:36:55.870Z,86.33
2022-12-01T07:37:55.788Z,85.71
2022-12-01T07:38:55.838Z,85.82
2022-12-01T07:39:55.800Z,85.92
2022-12-01T07:40:55.806Z,85.03
2022-12-01T07:41:55.760Z,85.34
2022-12-01T07:42:55.828Z,85.61
2022-12-01T07:43:55.779Z,85.92
2022-12-01T07:44:55.801Z,85.44
2022-12-01T07:45:55.764Z,86.17
2022-12-01T07:46:55.718Z,85.92
2022-12-01T07:47:55.720Z,86.02
2022-12-01T07:48:55.708Z,85.65
2022-12-01T07:49:55.831Z,85.96
2022-12-01T07:50:55.679Z,86.27
2022-12-01T07:51:55.686Z,86.27
2022-12-01T07:52:55.768Z,86.33
2022-12-01T07:53:55.640Z,85.44
2022-12-01T07:54:55.675Z,85.96
2022-12-01T07:55:55.677Z,85.71
2022-12-01T07:56:55.656Z,85.44
2022-12-01T07:57:55.599Z,85.75
2022-12-01T07:58:55.610Z,85.65
2022-12-01T07:59:55.647Z,85.65
2022-12-01T08:00:55.543Z,85.82
2022-12-01T08:01:55.704Z,85.61
2022-12-01T08:02:55.588Z,85.65
2022-12-01T08:03:55.551Z,84.82
2022-12-01T08:04:55.553Z,84.61
2022-12-01T08:05:55.564Z,85.03
2022-12-01T08:06:55.516Z,85.30
2022-12-01T08:07:55.605Z,85.24
2022-12-01T08:08:55.498Z,85.44
2022-12-01T08:09:55.594Z,84.61
2022-12-01T08:10:55.526Z,84.30
2022-12-01T08:11:55.506Z,84.51
2022-12-01T08:12:55.482Z,84.30
2022-12-01T08:13:55.494Z,84.41
2022-12-01T08:14:55.472Z,84.82
2022-12-01T08:15:55.521Z,84.61
2022-12-01T08:18:15.467Z,84.72
2022-12-01T08:19:15.659Z,84.41
2022-12-01T08:20:18.407Z,84.13
2022-12-01T08:21:16.462Z,84.44
2022-12-01T08:22:15.570Z,84.51
2022-12-01T08:23:15.387Z,84.82
2022-12-01T08:24:15.354Z,85.13
2022-12-01T08:25:15.334Z,84.82
2022-12-01T08:26:15.440Z,84.92
2022-12-01T08:27:15.795Z,84.72
2022-12-01T08:28:15.406Z,84.30
2022-12-01T08:29:19.889Z,84.41
2022-12-01T08:30:16.356Z,84.86
2022-12-01T08:31:15.356Z,85.17
2022-12-01T08:34:36.295Z,86.93
2022-12-01T08:35:36.406Z,87.04
2022-12-01T08:36:36.198Z,86.41
2022-12-01T08:37:36.413Z,86.72
2022-12-01T08:38:36.552Z,87.45
2022-12-01T08:39:36.293Z,86.93
2022-12-01T08:40:36.432Z,87.14
2022-12-01T08:41:36.594Z,86.72
2022-12-01T08:42:36.652Z,85.89
2022-12-01T08:44:03.319Z,86.21
2022-12-01T08:44:37.258Z,86.72
2022-12-01T08:45:36.130Z,87.24
2022-12-01T08:46:36.163Z,86.93
2022-12-01T08:47:36.282Z,86.83
2022-12-01T08:48:35.993Z,86.31
2022-12-01T08:49:36.475Z,86.41
2022-12-01T08:50:36.002Z,86.37
2022-12-01T08:51:36.067Z,85.69
2022-12-01T08:52:36.025Z,85.79
2022-12-01T08:53:36.006Z,85.69
2022-12-01T08:54:35.978Z,86.41
2022-12-01T08:55:36.105Z,86.31
2022-12-01T08:56:36.141Z,86.00
2022-12-01T08:57:35.942Z,86.52
2022-12-01T08:58:37.172Z,85.48
2022-12-01T08:59:37.217Z,86.41
2022-12-01T09:00:37.152Z,86.41
2022-12-01T09:01:37.570Z,85.79
2022-12-01T09:02:37.524Z,85.89
2022-12-01T09:03:37.083Z,85.89
2022-12-01T09:04:37.399Z,85.38
2022-12-01T09:05:37.092Z,85.48
2022-12-01T09:06:37.140Z,85.89
2022-12-01T09:07:37.294Z,84.92
2022-12-01T09:08:37.483Z,85.96
2022-12-01T09:09:38.723Z,84.82
2022-12-01T09:10:37.771Z,84.92
2022-12-01T09:11:37.473Z,85.03
2022-12-01T09:12:37.763Z,84.96
2022-12-01T09:13:36.993Z,84.51
2022-12-01T09:14:37.358Z,84.61
2022-12-01T09:15:37.771Z,84.20
2022-12-01T09:16:37.515Z,84.20
2022-12-01T09:17:38.794Z,84.30
2022-12-01T09:18:36.992Z,84.44
2022-12-01T09:19:37.659Z,84.28
2022-12-01T09:20:38.471Z,85.17
2022-12-01T09:21:44.599Z,85.11
2022-12-01T09:22:38.710Z,85.27
2022-12-01T09:23:37.183Z,84.55
2022-12-01T09:24:37.117Z,85.17
2022-12-01T09:25:38.372Z,84.96
2022-12-01T09:26:36.899Z,84.86
2022-12-01T09:27:37.797Z,84.34
2022-12-01T09:28:36.905Z,85.48
2022-12-01T09:29:38.620Z,85.83
2022-12-01T09:30:36.988Z,86.21
2022-12-01T09:31:36.917Z,86.15
2022-12-01T09:32:38.263Z,86.41
2022-12-01T09:33:37.895Z,85.89
2022-12-01T09:34:36.798Z,85.69
2022-12-01T09:35:36.987Z,85.48
2022-12-01T09:36:38.105Z,84.96
2022-12-01T09:37:37.775Z,84.55
2022-12-01T09:38:38.683Z,84.65
2022-12-01T09:39:38.034Z,84.34
2022-12-01T09:40:36.766Z,84.75
2022-12-01T09:41:37.238Z,84.55
2022-12-01T09:42:37.698Z,84.59
2022-12-01T09:43:36.716Z,84.34
2022-12-01T09:44:36.693Z,84.86
2022-12-01T09:45:36.683Z,84.44
2022-12-01T09:46:36.799Z,84.23
2022-12-01T09:47:36.965Z,84.55
2022-12-01T09:48:37.877Z,84.55
2022-12-01T09:49:37.411Z,84.55
2022-12-01T09:50:37.096Z,84.23
2022-12-01T09:51:36.608Z,84.13
2022-12-01T09:52:40.043Z,84.65
2022-12-01T09:53:36.813Z,83.62
2022-12-01T09:54:39.429Z,84.34
2022-12-01T09:55:36.647Z,83.93
2022-12-01T09:56:36.922Z,84.44
2022-12-01T09:57:37.111Z,83.93
2022-12-01T09:58:36.663Z,84.13
2022-12-01T09:59:36.893Z,84.13
2022-12-01T10:00:36.932Z,84.34
2022-12-01T10:01:36.562Z,83.93
2022-12-01T10:02:37.247Z,83.93
2022-12-01T10:03:38.458Z,84.03
2022-12-01T10:04:36.917Z,84.55
2022-12-01T10:05:38.833Z,84.55
2022-12-01T10:06:38.428Z,83.93
2022-12-01T10:07:37.542Z,83.62
2022-12-01T10:08:36.659Z,84.13
2022-12-01T10:09:38.125Z,84.23
2022-12-01T10:10:37.229Z,84.38
2022-12-01T10:11:38.161Z,84.44
2022-12-01T10:12:40.116Z,83.72
2022-12-01T10:13:37.708Z,83.20
2022-12-01T10:14:37.384Z,83.31
2022-12-01T10:15:36.620Z,84.38
2022-12-01T10:16:37.517Z,84.03
2022-12-01T10:17:36.872Z,83.83
2022-12-01T10:18:37.681Z,83.62
2022-12-01T10:19:36.845Z,83.00
2022-12-01T10:20:36.610Z,83.72
2022-12-01T10:21:37.188Z,84.03
2022-12-01T10:22:36.928Z,84.23
2022-12-01T10:23:36.403Z,83.47
2022-12-01T10:24:37.626Z,82.86
2022-12-01T10:25:36.408Z,83.99
2022-12-01T10:26:37.418Z,83.26
2022-12-01T10:27:37.231Z,83.00
2022-12-01T10:28:37.485Z,83.58
2022-12-01T10:29:38.598Z,83.16
2022-12-01T10:30:36.488Z,82.95
2022-12-01T10:31:47.767Z,82.44
2022-12-01T10:32:37.715Z,82.65
2022-12-01T10:33:36.205Z,82.54
2022-12-01T10:34:36.318Z,82.44
2022-12-01T10:35:37.413Z,82.75
2022-12-01T10:36:36.546Z,82.95
2022-12-01T10:37:36.217Z,83.58
2022-12-01T10:38:38.786Z,82.60
2022-12-01T10:39:36.373Z,82.23
2022-12-01T10:40:36.202Z,82.23
2022-12-01T10:41:36.499Z,82.40
2022-12-01T10:42:36.814Z,82.75
2022-12-01T10:43:36.158Z,82.54
2022-12-01T10:44:38.205Z,82.17
2022-12-01T10:45:37.280Z,82.37
2022-12-01T10:46:36.121Z,82.06
2022-12-01T10:47:37.416Z,82.86
2022-12-01T10:48:36.203Z,81.09
2022-12-01T10:49:36.888Z,80.99
2022-12-01T10:50:37.469Z,80.92
2022-12-01T10:51:36.028Z,80.78
2022-12-01T10:52:36.677Z,81.23
2022-12-01T10:53:37.404Z,81.02
2022-12-01T10:54:36.108Z,81.13
2022-12-01T10:55:37.290Z,80.88
2022-12-01T10:56:37.926Z,81.61
2022-12-01T10:57:37.048Z,81.20
2022-12-01T10:58:36.052Z,80.57
2022-12-01T10:59:36.066Z,80.47
2022-12-01T11:00:58.530Z,80.88
2022-12-01T11:01:38.534Z,81.30
2022-12-01T11:02:37.804Z,81.40
2022-12-01T11:03:38.661Z,81.09
2022-12-01T11:04:49.475Z,80.68
2022-12-01T11:05:37.902Z,81.09
2022-12-01T11:06:38.134Z,82.13
2022-12-01T11:07:39.286Z,81.88
2022-12-01T11:08:37.667Z,80.78
2022-12-01T11:09:40.666Z,80.78
2022-12-01T11:10:38.021Z,80.16
2022-12-01T11:11:44.335Z,79.81
2022-12-01T11:12:39.111Z,79.74
2022-12-01T11:13:38.795Z,79.74
2022-12-01T11:14:39.736Z,80.16
2022-12-01T11:15:36.872Z,79.06
2022-12-01T11:16:37.416Z,79.47
2022-12-01T11:17:36.702Z,79.47
2022-12-01T11:18:36.216Z,79.64
2022-12-01T11:19:42.553Z,79.95
2022-12-01T11:20:37.572Z,79.54
2022-12-01T11:21:36.122Z,79.33
2022-12-01T11:22:48.581Z,79.74
2022-12-01T11:23:44.059Z,79.33
2022-12-01T11:24:39.863Z,79.54
2022-12-01T11:25:37.224Z,80.36
2022-12-01T11:26:35.699Z,80.36
2022-12-01T11:27:35.846Z,79.85
2022-12-01T11:28:39.495Z,79.54
2022-12-01T11:29:37.949Z,79.85
2022-12-01T11:30:39.731Z,78.81
2022-12-01T11:31:36.024Z,78.81
2022-12-01T11:32:37.353Z,78.81
2022-12-01T11:33:36.100Z,78.92
2022-12-01T11:34:37.218Z,79.95
2022-12-01T11:35:37.359Z,80.02
2022-12-01T11:37:08.775Z,79.40
2022-12-01T11:38:13.212Z,78.47
2022-12-01T11:39:58.494Z,78.05
2022-12-01T11:42:14.999Z,77.88
2022-12-01T11:42:41.464Z,78.57
2022-12-01T11:44:28.586Z,78.26
2022-12-01T11:44:53.261Z,79.13
2022-12-01T11:45:32.935Z,79.33
2022-12-01T11:46:25.404Z,80.02
2022-12-01T11:47:39.786Z,78.99
2022-12-01T11:48:26.166Z,78.78
2022-12-01T11:50:01.539Z,78.92
2022-12-01T11:50:46.759Z,78.92
2022-12-01T11:51:27.836Z,78.96
2022-12-01T11:53:02.361Z,79.16
2022-12-01T11:53:31.161Z,79.64
2022-12-01T11:54:53.439Z,79.16
2022-12-01T11:55:30.321Z,80.09
2022-12-01T11:56:30.381Z,79.88
2022-12-01T11:58:59.091Z,79.85
2022-12-01T11:59:23.900Z,79.95
2022-12-01T12:00:28.843Z,79.95
2022-12-01T12:01:22.308Z,79.64
2022-12-01T12:02:30.737Z,79.81
2022-12-01T12:06:50.076Z,79.02
2022-12-01T12:07:24.797Z,79.09
2022-12-01T12:08:20.565Z,78.67
2022-12-01T12:09:23.206Z,79.23
2022-12-01T12:10:22.776Z,79.44
2022-12-01T12:11:20.652Z,80.05
2022-12-01T12:12:21.508Z,79.33
2022-12-01T12:13:21.174Z,79.64
2022-12-01T12:14:20.228Z,79.64
2022-12-01T12:15:24.502Z,79.71
2022-12-01T12:16:20.551Z,79.50
2022-12-01T12:17:22.609Z,79.44
2022-12-01T12:18:20.511Z,80.05
2022-12-01T12:19:25.426Z,80.05
2022-12-01T12:20:21.680Z,79.95
2022-12-01T12:21:25.621Z,79.88
2022-12-01T12:22:24.772Z,79.37
2022-12-01T12:23:21.683Z,79.47
2022-12-01T12:24:33.001Z,80.19
2022-12-01T12:25:41.622Z,80.19
2022-12-01T12:26:52.971Z,79.68
2022-12-01T12:27:32.631Z,79.88
2022-12-01T12:28:36.317Z,80.09
2022-12-01T12:30:56.207Z,80.30
2022-12-01T12:33:27.218Z,80.99
2022-12-01T12:35:52.519Z,80.99
2022-12-01T12:38:03.213Z,79.74
2022-12-01T12:39:04.882Z,79.95
2022-12-01T12:40:03.304Z,79.44
2022-12-01T12:41:03.507Z,80.26
2022-12-01T12:42:03.719Z,80.78
2022-12-01T12:43:03.166Z,80.16
2022-12-01T12:44:03.043Z,80.36
2022-12-01T12:45:03.664Z,80.05
2022-12-01T12:46:03.418Z,79.95
2022-12-01T12:47:03.717Z,79.44
2022-12-01T12:48:06.259Z,79.23
2022-12-01T12:49:19.073Z,79.44
2022-12-01T12:50:10.278Z,79.44
2022-12-01T12:51:04.739Z,79.78
2022-12-01T12:52:09.248Z,80.36
2022-12-01T12:53:10.231Z,80.36
2022-12-01T12:55:38.514Z,80.57
2022-12-01T13:01:05.605Z,80.26
2022-12-01T13:02:09.600Z,80.36
2022-12-01T13:03:06.613Z,81.37
2022-12-01T13:04:11.534Z,80.68
2022-12-01T13:05:07.798Z,80.88
2022-12-01T13:06:08.439Z,79.91
2022-12-01T13:07:07.812Z,79.95
2022-12-01T13:08:29.399Z,80.57
2022-12-01T13:09:23.581Z,80.26
2022-12-01T13:10:11.303Z,80.22
2022-12-01T13:11:55.483Z,80.78
2022-12-01T13:12:29.291Z,79.64
2022-12-01T13:14:05.365Z,80.26
2022-12-01T13:16:27.313Z,80.57
2022-12-01T13:17:07.392Z,80.99
2022-12-01T13:18:23.408Z,81.02
2022-12-01T13:18:44.206Z,80.78
2022-12-01T13:19:47.088Z,80.68
2022-12-01T13:20:33.022Z,80.99
2022-12-01T13:21:35.613Z,80.19
2022-12-01T13:22:30.193Z,80.09
2022-12-01T13:23:31.089Z,80.47
2022-12-01T13:24:32.825Z,79.99
2022-12-01T13:25:30.670Z,79.64
2022-12-01T13:26:29.684Z,80.05
2022-12-01T13:27:33.183Z,80.16
2022-12-01T13:29:24.616Z,80.09
2022-12-01T13:30:10.362Z,80.71
2022-12-01T13:30:33.632Z,81.02
2022-12-01T13:31:33.455Z,81.13
2022-12-01T13:32:34.079Z,80.51
2022-12-01T13:33:31.550Z,80.78
2022-12-01T13:34:44.094Z,80.99
2022-12-01T13:35:37.871Z,80.57
2022-12-01T13:37:12.193Z,80.88
2022-12-01T13:37:31.254Z,80.26
2022-12-01T13:38:32.800Z,80.68
2022-12-01T13:39:32.996Z,80.57
2022-12-01T13:40:46.268Z,80.99
2022-12-01T13:41:32.795Z,81.02
2022-12-01T13:42:32.907Z,81.96
2022-12-01T13:43:31.838Z,81.09
2022-12-01T13:44:31.243Z,81.30
2022-12-01T13:45:31.279Z,80.88
2022-12-01T13:47:42.242Z,80.68
2022-12-01T13:47:46.263Z,81.09
2022-12-01T13:48:54.158Z,80.88
2022-12-01T13:50:12.291Z,80.68
2022-12-01T13:50:54.059Z,81.30
2022-12-01T13:51:48.734Z,80.99
2022-12-01T13:52:45.816Z,81.51
2022-12-01T13:53:47.782Z,81.34
2022-12-01T13:54:45.127Z,80.88
2022-12-01T13:55:45.883Z,80.78
2022-12-01T13:56:56.211Z,81.23
2022-12-01T13:57:51.244Z,81.13
2022-12-01T13:59:01.261Z,80.82
2022-12-01T13:59:46.263Z,80.92
2022-12-01T14:00:46.719Z,80.92
2022-12-01T14:01:46.654Z,81.96
2022-12-01T14:02:45.365Z,81.96
2022-12-01T14:03:45.800Z,81.13
2022-12-01T14:04:49.354Z,81.02
2022-12-01T14:05:45.721Z,81.75
2022-12-01T14:06:44.718Z,81.09
2022-12-01T14:07:44.328Z,81.09
2022-12-01T14:08:46.594Z,80.82
2022-12-01T14:09:44.892Z,80.47
2022-12-01T14:10:45.488Z,80.71
2022-12-01T14:11:45.019Z,80.88
2022-12-01T14:12:49.016Z,81.96
2022-12-01T14:13:47.335Z,82.27
2022-12-01T14:14:46.109Z,82.13
2022-12-01T14:16:01.867Z,81.96
2022-12-01T14:16:45.815Z,81.23
2022-12-01T14:17:45.769Z,81.20
2022-12-01T14:18:47.684Z,80.78
2022-12-01T14:56:54.745Z,82.68
2022-12-01T14:57:56.138Z,82.79
2022-12-01T14:58:56.109Z,82.58
2022-12-01T14:59:55.890Z,82.89
2022-12-01T15:00:55.899Z,83.00
2022-12-01T15:01:55.951Z,82.89
2022-12-01T15:02:55.815Z,81.89
2022-12-01T15:03:55.804Z,82.06
2022-12-01T15:04:55.830Z,82.48
2022-12-01T15:05:55.756Z,82.48
2022-12-01T15:06:55.847Z,82.48
2022-12-01T15:08:06.743Z,82.37
2022-12-01T15:09:25.178Z,82.17
2022-12-01T15:09:56.749Z,82.58
2022-12-01T15:10:55.773Z,82.58
2022-12-01T15:11:55.712Z,82.17
2022-12-01T15:12:55.707Z,82.31
2022-12-01T15:13:56.227Z,82.82
2022-12-01T15:14:55.726Z,82.79
2022-12-01T15:15:55.795Z,83.51
2022-12-01T15:16:55.722Z,83.31
2022-12-01T15:17:55.650Z,83.45
2022-12-01T15:18:55.734Z,83.45
2022-12-01T15:19:55.693Z,83.41
2022-12-01T15:20:55.635Z,83.41
2022-12-01T15:21:55.662Z,83.62
2022-12-01T15:22:55.629Z,83.41
2022-12-01T15:23:55.591Z,83.31
2022-12-01T15:24:55.621Z,83.34
2022-12-01T15:25:55.616Z,83.14
2022-12-01T15:27:00.491Z,83.45
2022-12-01T15:27:57.564Z,83.55
2022-12-01T15:28:55.552Z,83.34
2022-12-01T15:29:55.534Z,82.72
2022-12-01T15:30:55.618Z,83.45
2022-12-01T15:31:55.637Z,83.34
2022-12-01T15:32:55.546Z,83.55
2022-12-01T15:33:55.532Z,82.93
2022-12-01T15:34:55.468Z,83.03
2022-12-01T15:35:55.495Z,83.55
2022-12-01T15:36:55.514Z,83.45
2022-12-01T15:37:55.619Z,83.55
2022-12-01T15:38:55.498Z,83.45
2022-12-01T15:40:00.824Z,82.82
2022-12-01T15:41:28.010Z,82.82
2022-12-01T15:41:57.531Z,82.82
2022-12-01T15:42:55.521Z,83.24
2022-12-01T15:43:55.452Z,83.24
2022-12-01T15:44:59.999Z,82.79
2022-12-01T15:45:57.516Z,83.03
2022-12-01T15:46:55.408Z,83.34
2022-12-01T15:47:55.393Z,83.34
2022-12-01T15:48:55.410Z,83.45
2022-12-01T15:49:55.338Z,83.24
2022-12-01T15:50:55.432Z,83.45
2022-12-01T15:51:55.354Z,83.24
2022-12-01T15:52:55.367Z,82.93
2022-12-01T15:53:55.478Z,83.45
2022-12-01T15:54:55.307Z,83.45
2022-12-01T15:55:58.801Z,82.93
2022-12-01T15:56:56.297Z,82.82
2022-12-01T15:57:55.272Z,82.86
2022-12-01T15:58:55.270Z,82.62
2022-12-01T15:59:55.244Z,83.07
2022-12-01T16:00:55.392Z,83.28
2022-12-01T16:01:55.316Z,83.45
2022-12-01T16:02:55.278Z,83.45
2022-12-01T16:03:55.233Z,83.24
2022-12-01T16:04:55.225Z,83.14
2022-12-01T16:05:55.231Z,83.86
2022-12-01T16:06:55.320Z,83.86
2022-12-01T16:08:57.255Z,82.93
2022-12-01T16:09:55.279Z,83.24
2022-12-01T16:10:55.203Z,83.86
2022-12-01T16:11:55.171Z,83.83
2022-12-01T16:12:55.114Z,83.62
2022-12-01T16:13:55.178Z,84.17
2022-12-01T16:14:55.108Z,83.34
2022-12-01T16:15:55.234Z,83.34
2022-12-01T16:16:55.234Z,83.14
2022-12-01T16:17:55.133Z,83.45
2022-12-01T16:18:55.078Z,83.45
2022-12-01T16:19:55.064Z,83.34
2022-12-01T16:20:55.054Z,83.55
2022-12-01T16:21:55.089Z,83.34
2022-12-01T16:22:55.028Z,83.03
2022-12-01T16:23:55.102Z,83.28
2022-12-01T16:24:55.053Z,82.72
2022-12-01T16:25:59.158Z,83.55
2022-12-01T16:26:57.075Z,83.45
2022-12-01T16:27:55.041Z,83.55
2022-12-01T16:28:55.036Z,83.55
2022-12-01T16:29:55.047Z,83.65
2022-12-01T16:30:55.026Z,83.24
2022-12-01T16:32:22.071Z,83.45
2022-12-01T16:32:57.029Z,83.65
2022-12-01T16:33:54.946Z,83.65
2022-12-01T16:34:55.002Z,83.07
2022-12-01T16:35:55.957Z,83.45
2022-12-01T16:36:54.962Z,83.24
2022-12-01T16:37:54.906Z,83.38
2022-12-01T16:38:54.879Z,83.45
2022-12-01T16:39:54.876Z,83.34
2022-12-01T16:40:54.907Z,83.45
2022-12-01T16:41:54.946Z,83.28
2022-12-01T16:42:54.887Z,83.24
2022-12-01T16:44:26.559Z,83.34
2022-12-01T16:44:56.835Z,83.38
2022-12-01T16:45:54.876Z,83.17
2022-12-01T16:46:54.806Z,83.14
2022-12-01T16:47:54.824Z,83.14
2022-12-01T16:48:54.751Z,83.59
2022-12-01T16:49:54.797Z,84.07
2022-12-01T16:50:54.730Z,84.21
2022-12-01T16:51:56.499Z,84.00
2022-12-01T16:52:55.806Z,84.00
2022-12-01T16:53:54.761Z,84.21
2022-12-01T16:54:54.849Z,84.52
2022-12-01T16:55:54.715Z,84.73
2022-12-01T16:56:54.717Z,84.63
2022-12-01T16:57:54.762Z,84.63
2022-12-01T16:58:54.679Z,84.63
2022-12-01T16:59:54.755Z,84.52
2022-12-01T17:00:54.842Z,84.63
2022-12-01T17:01:54.759Z,84.38
2022-12-01T17:02:54.723Z,84.80
2022-12-01T17:03:54.605Z,84.80
2022-12-01T17:04:54.630Z,84.28
2022-12-01T17:05:54.621Z,84.80
2022-12-01T17:06:54.637Z,84.38
2022-12-01T17:07:54.683Z,84.38
2022-12-01T17:08:54.587Z,84.52
2022-12-01T17:09:54.624Z,84.52
2022-12-01T17:10:54.572Z,84.00
2022-12-01T17:11:54.513Z,83.80
2022-12-01T17:12:55.565Z,83.48
2022-12-01T17:13:54.542Z,84.63
2022-12-01T17:14:54.510Z,84.52
2022-12-01T17:15:54.618Z,83.90
2022-12-01T17:16:54.585Z,83.90
2022-12-01T17:17:54.506Z,84.11
2022-12-01T17:18:54.553Z,84.11
2022-12-01T17:19:54.521Z,84.83
2022-12-01T17:20:54.538Z,84.52
2022-12-01T17:21:54.510Z,84.42
2022-12-01T17:22:54.483Z,84.21
2022-12-01T17:23:54.464Z,84.63
2022-12-01T17:24:54.449Z,84.73
2022-12-01T17:25:54.433Z,84.52
2022-12-01T17:26:54.376Z,84.73
2022-12-01T17:27:54.400Z,84.73
2022-12-01T17:28:54.453Z,84.52
2022-12-01T17:29:54.349Z,84.67
2022-12-01T17:30:54.425Z,84.63
2022-12-01T17:31:54.341Z,84.77
2022-12-01T17:32:54.397Z,84.88
2022-12-01T17:33:54.314Z,85.04
2022-12-01T17:34:54.347Z,84.88
2022-12-01T17:35:54.368Z,85.14
2022-12-01T17:36:54.294Z,85.25
2022-12-01T17:37:54.385Z,86.02
2022-12-01T17:38:54.299Z,85.14
2022-12-01T17:39:54.283Z,84.52
2022-12-01T17:40:54.247Z,84.36
2022-12-01T17:41:54.392Z,84.77
2022-12-01T17:42:54.230Z,85.97
2022-12-01T17:43:54.323Z,85.60
2022-12-01T17:44:54.246Z,85.56
2022-12-01T17:45:54.360Z,85.35
2022-12-01T17:46:54.327Z,85.35
2022-12-01T17:47:54.255Z,85.77
2022-12-01T17:48:54.222Z,85.56
2022-12-01T17:49:54.238Z,86.12
2022-12-01T17:50:54.155Z,85.77
2022-12-01T17:51:54.219Z,85.46
2022-12-01T17:52:54.203Z,85.35
2022-12-01T17:53:54.143Z,84.83
2022-12-01T17:54:54.222Z,84.94
2022-12-01T17:55:54.163Z,85.04
2022-12-01T17:56:54.176Z,85.77
2022-12-01T17:57:54.235Z,85.77
2022-12-01T17:58:54.118Z,85.25
2022-12-01T18:12:49.591Z,85.60
2022-12-01T18:13:50.938Z,85.81
2022-12-01T18:14:51.295Z,86.02
2022-12-01T18:15:50.767Z,85.91
2022-12-01T18:16:50.758Z,86.02
2022-12-01T18:17:50.648Z,86.85
2022-12-01T18:18:50.640Z,87.05
2022-12-01T18:19:50.656Z,86.95
2022-12-01T18:20:50.640Z,86.85
2022-12-01T18:21:50.598Z,86.64
2022-12-01T18:22:50.657Z,86.33
2022-12-01T18:23:50.635Z,86.54
2022-12-01T18:24:50.780Z,86.64
2022-12-01T18:25:50.570Z,86.95
2022-12-01T18:26:50.571Z,86.95
2022-12-01T18:27:50.595Z,86.54
2022-12-01T18:28:50.533Z,86.99
2022-12-01T18:29:50.562Z,86.74
2022-12-01T18:30:50.753Z,86.99
2022-12-01T18:31:50.921Z,86.95
2022-12-01T18:32:50.500Z,86.99